.
WxDataArchive / Data Records for 2013-12-01
2013-11-30 December 2013 2013-12-02

Data Records for Sunday, 01 December 2013

Time	Temp	Chill	HIndex	Humid	Dewpt	 Wind 	HiWind	WindDir	Rain 	Barom 
-----	----	-----	------	-----	-----	------	------	-------	-----	----- 
00:00	32.5	32.5	32.5	76	25.8	0	0	---	0.00	30.112 
00:05	32.5	32.5	32.5	76	25.8	0	0	---	0.00	30.112 
00:10	32.5	32.5	32.5	75	25.5	0	0	---	0.00	30.112 
00:15	32.5	32.5	32.5	75	25.5	0	0	---	0.00	30.107 
00:20	32.4	32.4	32.4	75	25.4	0	0	---	0.00	30.107 
00:25	32.2	32.2	32.2	75	25.2	0	0	---	0.00	30.107 
00:30	32.1	32.1	32.1	75	25.1	0	0	---	0.00	30.107 
00:35	31.9	31.9	31.9	75	24.9	0	0	---	0.00	30.107 
00:40	31.8	31.8	31.8	76	25.1	0	0	---	0.00	30.107 
00:45	31.8	31.8	31.8	76	25.1	0	0	---	0.00	30.104 
00:50	31.9	31.9	31.9	77	25.5	0	0	---	0.00	30.104 
00:55	32.4	32.4	32.4	77	26.0	0	1	248	0.00	30.104 
01:00	33.2	33.2	33.2	75	26.2	0	1	248	0.00	30.093 
01:05	33.8	33.8	33.8	73	26.1	0	1	248	0.00	30.093 
01:10	34.3	34.3	34.3	72	26.2	0	2	248	0.00	30.093 
01:15	34.7	34.7	34.7	70	25.9	0	1	248	0.00	30.085 
01:20	34.9	34.9	34.9	69	25.8	0	1	248	0.00	30.085 
01:25	35.2	35.2	35.2	68	25.7	0	0	---	0.00	30.085 
01:30	35.5	35.5	35.5	68	26.0	0	1	248	0.00	30.079 
01:35	35.8	35.8	35.8	66	25.6	0	0	---	0.00	30.079 
01:40	36.2	36.2	36.2	65	25.6	0	2	248	0.00	30.079 
01:45	36.6	36.6	36.6	64	25.6	0	1	248	0.00	30.069 
01:50	37.0	37.0	37.0	63	25.6	0	2	248	0.00	30.069 
01:55	37.3	37.3	37.3	62	25.5	0	3	248	0.00	30.069 
02:00	37.6	37.6	37.6	61	25.4	0	2	248	0.00	30.067 
02:05	37.9	37.9	37.9	61	25.7	0	1	248	0.00	30.067 
02:10	38.0	38.0	38.0	60	25.4	0	3	248	0.00	30.067 
02:15	38.2	38.2	38.2	59	25.2	0	2	248	0.00	30.066 
02:20	38.3	38.3	38.3	59	25.2	0	2	248	0.00	30.066 
02:25	38.5	38.5	38.5	59	25.4	0	2	248	0.00	30.066 
02:30	38.6	38.6	38.6	59	25.5	0	3	248	0.00	30.063 
02:35	38.8	38.8	38.8	58	25.3	0	2	248	0.00	30.063 
02:40	38.8	38.8	38.8	58	25.3	0	2	248	0.00	30.063 
02:45	38.8	38.8	38.8	58	25.3	0	2	248	0.00	30.062 
02:50	38.9	38.9	38.9	58	25.4	0	1	248	0.00	30.062 
02:55	38.9	38.9	38.9	58	25.4	0	1	248	0.00	30.062 
03:00	38.9	38.9	38.9	59	25.8	0	1	248	0.00	30.061 
03:05	39.1	39.1	39.1	58	25.6	0	2	248	0.00	30.061 
03:10	39.2	39.2	39.2	58	25.7	0	2	248	0.00	30.061 
03:15	39.5	39.5	39.5	58	26.0	1	4	248	0.00	30.059 
03:20	39.6	39.6	39.6	58	26.1	0	3	248	0.00	30.059 
03:25	39.8	39.8	39.8	57	25.8	0	3	248	0.00	30.059 
03:30	39.9	39.9	39.9	57	25.9	0	2	248	0.00	30.055 
03:35	40.1	40.1	40.1	56	25.7	0	4	248	0.00	30.055 
03:40	40.2	40.2	40.2	56	25.8	0	2	248	0.00	30.055 
03:45	40.3	40.3	40.3	56	25.9	0	3	248	0.00	30.050 
03:50	40.5	40.5	40.5	56	26.1	0	3	248	0.00	30.050 
03:55	40.6	40.6	40.6	56	26.1	0	1	248	0.00	30.050 
04:00	40.6	40.6	40.6	55	25.7	0	2	248	0.00	30.041 
04:05	40.6	40.6	40.6	55	25.7	1	3	248	0.00	30.041 
04:10	40.6	40.6	40.6	55	25.7	0	2	248	0.00	30.041 
04:15	40.5	40.5	40.5	55	25.6	0	2	248	0.00	30.041 
04:20	40.3	40.3	40.3	56	25.9	0	2	248	0.00	30.041 
04:25	40.1	40.1	40.1	56	25.7	0	1	248	0.00	30.041 
04:30	39.9	39.9	39.9	56	25.5	0	3	248	0.00	30.037 
04:35	39.9	39.9	39.9	57	25.9	0	2	248	0.00	30.037 
04:40	39.9	39.9	39.9	57	25.9	0	1	248	0.00	30.037 
04:45	39.9	39.9	39.9	57	25.9	0	1	248	0.00	30.036 
04:50	39.8	39.8	39.8	58	26.2	0	1	248	0.00	30.036 
04:55	39.8	39.8	39.8	58	26.2	0	1	248	0.00	30.036 
05:00	39.8	39.8	39.8	58	26.2	0	1	248	0.00	30.037 
05:05	39.8	39.8	39.8	58	26.2	0	1	248	0.00	30.037 
05:10	39.8	39.8	39.8	58	26.2	0	1	248	0.00	30.037 
05:15	39.8	39.8	39.8	58	26.2	0	1	248	0.00	30.040 
05:20	39.8	39.8	39.8	58	26.2	0	3	248	0.00	30.040 
05:25	39.6	39.6	39.6	58	26.1	0	1	248	0.00	30.040 
05:30	39.5	39.5	39.5	59	26.4	0	1	248	0.00	30.039 
05:35	39.3	39.3	39.3	59	26.2	0	1	248	0.00	30.039 
05:40	39.1	39.1	39.1	59	26.0	0	1	248	0.00	30.039 
05:45	38.8	38.8	38.8	60	26.1	0	0	---	0.00	30.041 
05:50	38.5	38.5	38.5	60	25.8	0	1	248	0.00	30.041 
05:55	38.2	38.2	38.2	61	26.0	0	1	248	0.00	30.041 
06:00	37.9	37.9	37.9	62	26.1	0	1	248	0.00	30.044 
06:05	37.6	37.6	37.6	62	25.8	0	0	---	0.00	30.044 
06:10	37.2	37.2	37.2	63	25.8	0	1	248	0.00	30.044 
06:15	37.0	37.0	37.0	64	26.0	0	0	---	0.00	30.057 
06:20	36.8	36.8	36.8	64	25.8	0	0	---	0.00	30.057 
06:25	36.5	36.5	36.5	65	25.9	0	0	---	0.00	30.057 
06:30	36.3	36.3	36.3	65	25.7	0	0	---	0.00	30.054 
06:35	36.0	36.0	36.0	66	25.8	0	1	248	0.00	30.054 
06:40	35.9	35.9	35.9	66	25.7	0	1	248	0.00	30.054 
06:45	35.6	35.6	35.6	67	25.7	0	0	---	0.00	30.050 
06:50	35.5	35.5	35.5	68	26.0	0	0	---	0.00	30.050 
06:55	35.2	35.2	35.2	68	25.7	0	0	---	0.00	30.050 
07:00	35.0	35.0	35.0	69	25.9	0	1	248	0.00	30.050 
07:05	34.9	34.9	34.9	69	25.8	0	1	248	0.00	30.050 
07:10	34.9	34.9	34.9	70	26.1	0	1	248	0.00	30.050 
07:15	34.7	34.7	34.7	70	25.9	0	1	248	0.00	30.055 
07:20	34.9	34.9	34.9	71	26.5	0	1	248	0.00	30.055 
07:25	34.9	34.9	34.9	71	26.5	0	0	---	0.00	30.055 
07:30	34.7	34.7	34.7	71	26.3	0	0	---	0.00	30.060 
07:35	34.6	34.6	34.6	71	26.2	0	0	---	0.00	30.060 
07:40	34.4	34.4	34.4	71	26.0	0	0	---	0.00	30.060 
07:45	34.1	34.1	34.1	72	26.0	0	1	248	0.00	30.068 
07:50	34.1	34.1	34.1	73	26.4	0	0	---	0.00	30.068 
07:55	34.0	34.0	34.0	73	26.3	0	0	---	0.00	30.068 
08:00	33.8	33.8	33.8	73	26.1	0	0	---	0.00	30.066 
08:05	33.5	33.5	33.5	73	25.8	0	0	---	0.00	30.066 
08:10	33.4	33.4	33.4	73	25.7	0	0	---	0.00	30.066 
08:15	33.4	33.4	33.4	74	26.0	0	0	---	0.00	30.068 
08:20	33.5	33.5	33.5	75	26.4	0	0	---	0.00	30.068 
08:25	33.7	33.7	33.7	75	26.6	0	0	---	0.00	30.068 
08:30	34.1	34.1	34.1	75	27.0	0	1	248	0.00	30.070 
08:35	34.6	34.6	34.6	75	27.5	0	0	---	0.00	30.070 
08:40	35.2	35.2	35.2	74	27.8	0	1	248	0.00	30.070 
08:45	35.8	35.8	35.8	73	28.0	0	1	248	0.00	30.075 
08:50	36.2	36.2	36.2	72	28.1	0	1	248	0.00	30.075 
08:55	36.6	36.6	36.6	71	28.1	0	1	248	0.00	30.075 
09:00	36.8	36.8	36.8	70	27.9	0	1	248	0.00	30.074 
09:05	37.0	37.0	37.0	69	27.8	0	1	248	0.00	30.074 
09:10	37.2	37.2	37.2	69	28.0	0	1	248	0.00	30.074 
09:15	37.3	37.3	37.3	69	28.1	0	1	248	0.00	30.077 
09:20	37.5	37.5	37.5	69	28.3	0	1	248	0.00	30.077 
09:25	37.6	37.6	37.6	68	28.0	0	1	248	0.00	30.077 
09:30	37.8	37.8	37.8	67	27.8	0	2	248	0.00	30.072 
09:35	37.9	37.9	37.9	68	28.3	0	1	248	0.00	30.072 
09:40	38.0	38.0	38.0	67	28.0	0	1	248	0.00	30.072 
09:45	38.2	38.2	38.2	67	28.2	0	1	248	0.00	30.064 
09:50	38.3	38.3	38.3	67	28.3	0	2	248	0.00	30.064 
09:55	38.5	38.5	38.5	66	28.1	0	2	248	0.00	30.064 
10:00	38.6	38.6	38.6	66	28.2	0	2	248	0.00	30.066 
10:05	38.8	38.8	38.8	66	28.4	0	1	248	0.00	30.066 
10:10	38.9	38.9	38.9	66	28.5	0	2	248	0.00	30.066 
10:15	39.1	39.1	39.1	66	28.7	0	1	248	0.00	30.078 
10:20	39.3	39.3	39.3	66	28.9	0	2	248	0.00	30.078 
10:25	39.3	39.3	39.3	65	28.5	1	3	248	0.00	30.078 
10:30	39.2	39.2	39.2	65	28.4	0	2	248	0.00	30.078 
10:35	39.3	39.3	39.3	65	28.5	0	2	248	0.00	30.078 
10:40	39.5	39.5	39.5	65	28.7	0	2	248	0.00	30.078 
10:45	39.8	39.8	39.8	65	29.0	0	3	248	0.00	30.078 
10:50	40.1	40.1	40.1	65	29.3	0	1	248	0.00	30.078 
10:55	40.3	40.3	40.3	65	29.5	1	4	248	0.00	30.078 
11:00	40.5	40.5	40.5	65	29.7	1	2	315	0.00	30.075 
11:05	40.6	40.6	40.6	65	29.8	1	3	315	0.00	30.075 
11:10	40.8	40.8	40.8	65	30.0	0	3	315	0.00	30.075 
11:15	40.8	40.8	40.8	65	30.0	0	2	315	0.00	30.074 
11:20	40.9	40.9	40.9	65	30.1	0	1	315	0.00	30.074 
11:25	41.1	41.1	41.1	65	30.2	0	2	315	0.00	30.074 
11:30	41.1	41.1	41.1	65	30.2	0	1	315	0.00	30.062 
11:35	41.1	41.1	41.1	65	30.2	0	2	315	0.00	30.062 
11:40	41.2	41.2	41.2	65	30.3	0	3	315	0.00	30.062 
11:45	41.2	41.2	41.2	65	30.3	0	2	315	0.00	30.061 
11:50	41.3	41.3	41.3	65	30.4	0	2	315	0.00	30.061 
11:55	41.5	41.5	41.5	65	30.6	1	3	315	0.00	30.061 
12:00	41.6	41.6	41.6	65	30.7	0	1	315	0.00	30.058 
12:05	41.9	41.9	41.9	65	31.0	0	2	315	0.00	30.058 
12:10	41.9	41.9	41.9	64	30.6	1	3	315	0.00	30.058 
12:15	41.9	41.9	41.9	64	30.6	1	3	292	0.00	30.059 
12:20	41.9	41.9	41.9	64	30.6	1	2	292	0.00	30.059 
12:25	42.1	42.1	42.1	64	30.8	0	2	292	0.00	30.059 
12:30	42.2	42.2	42.2	64	30.9	0	1	292	0.00	30.042 
12:35	42.2	42.2	42.2	63	30.5	0	2	292	0.00	30.042 
12:40	42.2	42.2	42.2	64	30.9	0	2	292	0.00	30.042 
12:45	42.3	42.3	42.3	63	30.6	0	1	292	0.00	30.037 
12:50	42.3	42.3	42.3	64	31.0	0	1	292	0.00	30.037 
12:55	42.6	42.6	42.6	63	30.9	0	1	292	0.00	30.037 
13:00	42.9	42.9	42.9	63	31.2	0	2	292	0.00	30.028 
13:05	43.3	43.3	43.3	64	32.0	0	1	292	0.00	30.028 
13:10	43.8	43.8	43.8	62	31.6	1	3	292	0.00	30.028 
13:15	44.1	44.1	44.1	61	31.5	0	3	292	0.00	30.015 
13:20	43.9	43.9	43.9	62	31.7	0	1	292	0.00	30.015 
13:25	44.1	44.1	44.1	61	31.5	0	1	292	0.00	30.015 
13:30	44.1	44.1	44.1	62	31.9	0	2	292	0.00	30.009 
13:35	44.3	44.3	44.3	62	32.1	0	1	292	0.00	30.009 
13:40	44.5	44.5	44.5	61	31.9	0	2	292	0.00	30.009 
13:45	44.6	44.6	44.6	61	32.0	0	2	292	0.00	30.003 
13:50	44.8	44.8	44.8	61	32.2	0	2	292	0.00	30.003 
13:55	44.8	44.8	44.8	60	31.8	0	1	292	0.00	30.003 
14:00	44.9	44.9	44.9	61	32.3	0	2	292	0.00	30.002 
14:05	44.9	44.9	44.9	61	32.3	0	1	292	0.00	30.002 
14:10	44.9	44.9	44.9	61	32.3	0	1	292	0.00	30.002 
14:15	45.1	45.1	45.1	61	32.5	0	3	292	0.00	29.992 
14:20	45.5	45.5	45.5	61	32.8	0	1	292	0.00	29.992 
14:25	45.8	45.8	45.8	61	33.1	0	2	292	0.00	29.992 
14:30	46.0	46.0	46.0	60	32.9	0	1	292	0.00	29.987 
14:35	46.1	46.1	46.1	59	32.6	0	2	292	0.00	29.987 
14:40	46.4	46.4	46.4	59	32.9	0	2	292	0.00	29.987 
14:45	46.4	46.4	46.4	60	33.3	0	2	292	0.00	29.986 
14:50	46.7	46.7	46.7	59	33.1	0	2	292	0.00	29.986 
14:55	46.7	46.7	46.7	59	33.1	1	2	292	0.00	29.986 
15:00	46.7	46.7	46.7	60	33.6	0	2	292	0.00	29.984 
15:05	46.7	46.7	46.7	59	33.1	0	2	292	0.00	29.984 
15:10	46.7	46.7	46.7	59	33.1	0	2	292	0.00	29.984 
15:15	46.8	46.8	46.8	59	33.2	0	2	292	0.00	29.978 
15:20	46.7	46.7	46.7	59	33.1	0	1	292	0.00	29.978 
15:25	46.7	46.7	46.7	59	33.1	0	2	292	0.00	29.978 
15:30	46.7	46.7	46.7	59	33.1	0	2	292	0.00	29.980 
15:35	46.5	46.5	46.5	60	33.4	0	2	292	0.00	29.980 
15:40	46.4	46.4	46.4	60	33.3	0	2	292	0.00	29.980 
15:45	46.1	46.1	46.1	61	33.4	0	2	292	0.00	29.984 
15:50	46.0	46.0	46.0	61	33.3	0	1	292	0.00	29.984 
15:55	46.0	46.0	46.0	62	33.7	0	2	292	0.00	29.984 
16:00	45.8	45.8	45.8	61	33.1	0	2	292	0.00	29.984 
16:05	45.8	45.8	45.8	61	33.1	0	1	292	0.00	29.984 
16:10	45.7	45.7	45.7	61	33.0	0	1	292	0.00	29.984 
16:15	45.4	45.4	45.4	61	32.7	0	2	292	0.00	29.982 
16:20	45.1	45.1	45.1	61	32.5	0	2	292	0.00	29.982 
16:25	44.8	44.8	44.8	61	32.2	0	3	292	0.00	29.982 
16:30	44.5	44.5	44.5	62	32.3	0	1	292	0.00	29.985 
16:35	44.3	44.3	44.3	62	32.1	0	1	292	0.00	29.985 
16:40	44.2	44.2	44.2	62	32.0	0	3	292	0.00	29.985 
16:45	43.9	43.9	43.9	63	32.1	0	1	292	0.00	29.987 
16:50	43.8	43.8	43.8	64	32.4	0	1	292	0.00	29.987 
16:55	43.5	43.5	43.5	64	32.1	0	2	292	0.00	29.987 
17:00	43.2	43.2	43.2	65	32.2	0	1	292	0.00	29.990 
17:05	42.8	42.8	42.8	65	31.9	0	4	292	0.00	29.990 
17:10	42.5	42.5	42.5	67	32.3	0	2	292	0.00	29.990 
17:15	42.2	42.2	42.2	68	32.4	0	1	292	0.00	29.995 
17:20	41.9	41.9	41.9	69	32.5	0	1	292	0.00	29.995 
17:25	41.6	41.6	41.6	70	32.6	0	0	---	0.00	29.995 
17:30	41.3	41.3	41.3	70	32.3	0	0	---	0.00	29.996 
17:35	41.1	41.1	41.1	71	32.4	0	1	292	0.00	29.996 
17:40	40.9	40.9	40.9	71	32.2	0	1	292	0.00	29.996 
17:45	40.6	40.6	40.6	71	31.9	0	0	---	0.00	30.004 
17:50	40.3	40.3	40.3	72	32.0	0	0	---	0.00	30.004 
17:55	40.2	40.2	40.2	72	31.9	0	0	---	0.00	30.004 
18:00	40.1	40.1	40.1	73	32.2	0	0	---	0.00	30.004 
18:05	39.9	39.9	39.9	73	32.0	0	0	---	0.00	30.004 
18:10	39.6	39.6	39.6	73	31.7	0	0	---	0.00	30.004 
18:15	39.5	39.5	39.5	74	31.9	0	0	---	0.00	30.006 
18:20	39.5	39.5	39.5	74	31.9	0	1	292	0.00	30.006 
18:25	39.5	39.5	39.5	74	31.9	0	0	---	0.00	30.006 
18:30	39.5	39.5	39.5	75	32.2	0	1	292	0.00	30.011 
18:35	39.5	39.5	39.5	75	32.2	0	0	---	0.00	30.011 
18:40	39.6	39.6	39.6	75	32.3	0	0	---	0.00	30.011 
18:45	39.8	39.8	39.8	75	32.5	0	0	---	0.00	30.013 
18:50	39.9	39.9	39.9	75	32.6	0	0	---	0.00	30.013 
18:55	40.1	40.1	40.1	75	32.8	0	0	---	0.00	30.013 
19:00	40.2	40.2	40.2	74	32.6	0	0	---	0.00	30.014 
19:05	40.3	40.3	40.3	74	32.7	0	0	---	0.00	30.014 
19:10	40.3	40.3	40.3	73	32.3	0	0	---	0.00	30.014 
19:15	40.3	40.3	40.3	73	32.3	0	1	292	0.00	30.013 
19:20	40.3	40.3	40.3	73	32.3	0	1	292	0.00	30.013 
19:25	40.5	40.5	40.5	72	32.2	0	1	292	0.00	30.013 
19:30	40.3	40.3	40.3	71	31.7	0	1	292	0.00	30.009 
19:35	40.2	40.2	40.2	71	31.6	0	0	---	0.00	30.009 
19:40	40.1	40.1	40.1	70	31.1	0	0	---	0.00	30.009 
19:45	39.8	39.8	39.8	70	30.8	0	0	---	0.00	30.009 
19:50	39.5	39.5	39.5	70	30.5	0	0	---	0.00	30.009 
19:55	39.2	39.2	39.2	71	30.6	0	1	292	0.00	30.009 
20:00	39.2	39.2	39.2	72	30.9	0	0	---	0.00	30.016 
20:05	39.2	39.2	39.2	72	30.9	0	0	---	0.00	30.016 
20:10	39.2	39.2	39.2	72	30.9	0	0	---	0.00	30.016 
20:15	39.1	39.1	39.1	72	30.8	0	0	---	0.00	30.011 
20:20	39.1	39.1	39.1	72	30.8	0	0	---	0.00	30.011 
20:25	38.9	38.9	38.9	72	30.7	0	0	---	0.00	30.011 
20:30	38.9	38.9	38.9	72	30.7	0	0	---	0.00	30.011 
20:35	38.8	38.8	38.8	72	30.6	0	0	---	0.00	30.011 
20:40	38.6	38.6	38.6	72	30.4	0	0	---	0.00	30.011 
20:45	38.5	38.5	38.5	72	30.3	0	0	---	0.00	30.011 
20:50	38.3	38.3	38.3	73	30.4	0	0	---	0.00	30.011 
20:55	38.2	38.2	38.2	73	30.3	0	0	---	0.00	30.011 
21:00	38.0	38.0	38.0	73	30.1	0	0	---	0.00	30.011 
21:05	37.9	37.9	37.9	73	30.0	0	0	---	0.00	30.011 
21:10	37.8	37.8	37.8	74	30.3	0	0	---	0.00	30.011 
21:15	37.6	37.6	37.6	74	30.1	0	0	---	0.00	30.000 
21:20	37.5	37.5	37.5	74	30.0	0	1	292	0.00	30.000 
21:25	37.3	37.3	37.3	74	29.8	0	0	---	0.00	30.000 
21:30	37.3	37.3	37.3	74	29.8	0	0	---	0.00	29.999 
21:35	37.2	37.2	37.2	74	29.7	0	0	---	0.00	29.999 
21:40	37.0	37.0	37.0	74	29.5	0	0	---	0.00	29.999 
21:45	37.0	37.0	37.0	75	29.8	0	0	---	0.00	29.998 
21:50	36.9	36.9	36.9	75	29.7	0	0	---	0.00	29.998 
21:55	36.8	36.8	36.8	75	29.6	0	0	---	0.00	29.998 
22:00	36.5	36.5	36.5	75	29.3	0	0	---	0.00	29.998 
22:05	36.3	36.3	36.3	75	29.1	0	0	---	0.00	29.998 
22:10	36.2	36.2	36.2	75	29.1	0	0	---	0.00	29.998 
22:15	35.9	35.9	35.9	76	29.1	0	0	---	0.00	29.995 
22:20	35.8	35.8	35.8	77	29.3	0	0	---	0.00	29.995 
22:25	35.6	35.6	35.6	77	29.1	0	0	---	0.00	29.995 
22:30	35.3	35.3	35.3	77	28.8	0	0	---	0.00	29.997 
22:35	35.2	35.2	35.2	77	28.7	0	0	---	0.00	29.997 
22:40	35.0	35.0	35.0	77	28.5	0	0	---	0.00	29.997 
22:45	34.9	34.9	34.9	78	28.7	0	0	---	0.00	29.997 
22:50	34.9	34.9	34.9	78	28.7	0	0	---	0.00	29.997 
22:55	34.9	34.9	34.9	79	29.1	0	0	---	0.00	29.997 
23:00	34.9	34.9	34.9	79	29.1	0	0	---	0.00	29.997 
23:05	34.9	34.9	34.9	79	29.1	0	1	292	0.00	29.997 
23:10	34.7	34.7	34.7	80	29.2	0	0	---	0.00	29.997 
23:15	34.6	34.6	34.6	80	29.1	0	0	---	0.00	29.996 
23:20	34.4	34.4	34.4	80	28.9	0	0	---	0.00	29.996 
23:25	34.1	34.1	34.1	80	28.6	0	0	---	0.00	29.996 
23:30	34.0	34.0	34.0	80	28.5	0	0	---	0.00	29.994 
23:35	33.7	33.7	33.7	80	28.2	0	0	---	0.00	29.994 
23:40	33.4	33.4	33.4	81	28.2	0	0	---	0.00	29.994 
23:45	33.2	33.2	33.2	81	28.0	0	0	---	0.00	29.993 
23:50	32.9	32.9	32.9	81	27.7	0	0	---	0.00	29.993 
23:55	32.8	32.8	32.8	81	27.6	0	0	---	0.00	29.993 

CoCoRaHS
IN-AL-39
A2 Web Hosting
Creative Commons License
GoDaddy
search engine by freefind advanced

loaded 2018-11-21 00:43:07 • last modified 2010-11-18 10:43:29
Privacy PolicyDisclaimer
• wx.awcolley.com is powered by PmWiki v.2002016 •
• all content (unless otherwise noted) © 2018 A W Colley